sensor_id;sensor_type;location;lat;lon;timestamp;P1;durP1;ratioP1;P2;durP2;ratioP2
27223;SDS011;14965;50.660;13.226;2023-04-24T02:06:24;5.40;;;1.20;;
27223;SDS011;14965;50.660;13.226;2023-04-24T02:08:51;4.53;;;1.25;;
27223;SDS011;14965;50.660;13.226;2023-04-24T02:11:17;4.85;;;1.42;;
27223;SDS011;14965;50.660;13.226;2023-04-24T02:13:44;2.85;;;1.45;;
27223;SDS011;14965;50.660;13.226;2023-04-24T02:16:10;2.17;;;1.17;;
27223;SDS011;14965;50.660;13.226;2023-04-24T02:18:36;2.55;;;1.17;;
27223;SDS011;14965;50.660;13.226;2023-04-24T02:21:03;3.38;;;1.55;;
27223;SDS011;14965;50.660;13.226;2023-04-24T02:23:31;3.42;;;1.58;;
27223;SDS011;14965;50.660;13.226;2023-04-24T02:25:57;1.75;;;1.30;;
27223;SDS011;14965;50.660;13.226;2023-04-24T02:28:23;1.55;;;1.42;;
27223;SDS011;14965;50.660;13.226;2023-04-24T02:30:49;2.40;;;1.50;;
27223;SDS011;14965;50.660;13.226;2023-04-24T02:33:16;2.85;;;1.70;;
27223;SDS011;14965;50.660;13.226;2023-04-24T02:35:42;2.22;;;1.50;;
27223;SDS011;14965;50.660;13.226;2023-04-24T02:38:09;3.30;;;1.40;;
27223;SDS011;14965;50.660;13.226;2023-04-24T02:40:36;3.67;;;1.60;;
27223;SDS011;14965;50.660;13.226;2023-04-24T02:43:03;3.25;;;1.60;;
27223;SDS011;14965;50.660;13.226;2023-04-24T02:45:29;2.00;;;1.60;;
27223;SDS011;14965;50.660;13.226;2023-04-24T02:47:55;3.90;;;1.50;;
27223;SDS011;14965;50.660;13.226;2023-04-24T02:50:21;3.10;;;1.40;;
27223;SDS011;14965;50.660;13.226;2023-04-24T02:52:48;5.80;;;2.13;;
27223;SDS011;14965;50.660;13.226;2023-04-24T02:55:14;3.33;;;1.50;;
27223;SDS011;14965;50.660;13.226;2023-04-24T02:57:42;3.97;;;1.77;;
27223;SDS011;14965;50.660;13.226;2023-04-24T03:00:09;3.47;;;1.63;;
27223;SDS011;14965;50.660;13.226;2023-04-24T03:02:37;3.17;;;1.60;;
27223;SDS011;14965;50.660;13.226;2023-04-24T03:05:03;4.43;;;1.52;;
27223;SDS011;14965;50.660;13.226;2023-04-24T03:07:30;2.80;;;1.55;;
27223;SDS011;14965;50.660;13.226;2023-04-24T03:09:57;1.85;;;1.42;;
27223;SDS011;14965;50.660;13.226;2023-04-24T03:12:23;1.88;;;1.60;;
27223;SDS011;14965;50.660;13.226;2023-04-24T03:14:51;1.83;;;1.35;;
27223;SDS011;14965;50.660;13.226;2023-04-24T03:17:17;3.35;;;1.70;;
27223;SDS011;14965;50.660;13.226;2023-04-24T03:19:44;3.95;;;1.50;;
27223;SDS011;14965;50.660;13.226;2023-04-24T03:22:10;3.10;;;1.70;;
27223;SDS011;14965;50.660;13.226;2023-04-24T03:24:37;2.10;;;1.50;;
27223;SDS011;14965;50.660;13.226;2023-04-24T03:27:03;2.38;;;1.50;;
27223;SDS011;14965;50.660;13.226;2023-04-24T03:29:29;5.20;;;1.63;;
27223;SDS011;14965;50.660;13.226;2023-04-24T03:31:57;3.05;;;1.77;;
27223;SDS011;14965;50.660;13.226;2023-04-24T03:34:24;3.65;;;1.70;;
27223;SDS011;14965;50.660;13.226;2023-04-24T03:36:50;3.47;;;1.60;;
27223;SDS011;14965;50.660;13.226;2023-04-24T03:39:16;3.85;;;1.63;;
27223;SDS011;14965;50.660;13.226;2023-04-24T03:41:43;4.65;;;1.80;;
27223;SDS011;14965;50.660;13.226;2023-04-24T03:44:09;2.25;;;1.50;;
27223;SDS011;14965;50.660;13.226;2023-04-24T03:46:35;2.88;;;1.45;;
27223;SDS011;14965;50.660;13.226;2023-04-24T03:49:03;3.40;;;1.67;;
27223;SDS011;14965;50.660;13.226;2023-04-24T03:51:30;3.45;;;1.70;;
27223;SDS011;14965;50.660;13.226;2023-04-24T03:53:56;1.90;;;1.50;;
27223;SDS011;14965;50.660;13.226;2023-04-24T03:56:22;2.67;;;1.60;;
27223;SDS011;14965;50.660;13.226;2023-04-24T03:58:51;2.35;;;1.40;;
27223;SDS011;14965;50.660;13.226;2023-04-24T04:01:18;2.55;;;1.50;;
27223;SDS011;14965;50.660;13.226;2023-04-24T04:03:44;2.03;;;1.50;;
27223;SDS011;14965;50.660;13.226;2023-04-24T04:06:12;3.75;;;1.52;;
27223;SDS011;14965;50.660;13.226;2023-04-24T04:08:38;3.13;;;1.40;;
27223;SDS011;14965;50.660;13.226;2023-04-24T04:11:05;2.38;;;1.55;;
27223;SDS011;14965;50.660;13.226;2023-04-24T04:13:31;3.38;;;1.48;;
27223;SDS011;14965;50.660;13.226;2023-04-24T04:15:57;2.20;;;1.50;;
27223;SDS011;14965;50.660;13.226;2023-04-24T04:18:24;1.77;;;1.50;;
27223;SDS011;14965;50.660;13.226;2023-04-24T04:20:50;2.97;;;1.60;;
27223;SDS011;14965;50.660;13.226;2023-04-24T04:23:18;2.47;;;1.50;;
27223;SDS011;14965;50.660;13.226;2023-04-24T04:25:44;2.65;;;1.58;;
27223;SDS011;14965;50.660;13.226;2023-04-24T04:28:11;2.95;;;1.27;;
27223;SDS011;14965;50.660;13.226;2023-04-24T04:30:37;4.00;;;1.50;;
27223;SDS011;14965;50.660;13.226;2023-04-24T04:33:04;2.40;;;1.55;;
27223;SDS011;14965;50.660;13.226;2023-04-24T04:35:30;2.60;;;1.50;;
27223;SDS011;14965;50.660;13.226;2023-04-24T04:37:56;2.75;;;1.60;;
27223;SDS011;14965;50.660;13.226;2023-04-24T04:40:24;2.00;;;1.45;;
27223;SDS011;14965;50.660;13.226;2023-04-24T04:42:51;2.35;;;1.50;;
27223;SDS011;14965;50.660;13.226;2023-04-24T04:45:17;1.98;;;1.58;;
27223;SDS011;14965;50.660;13.226;2023-04-24T04:47:44;2.42;;;1.50;;
27223;SDS011;14965;50.660;13.226;2023-04-24T04:50:10;2.45;;;1.50;;
27223;SDS011;14965;50.660;13.226;2023-04-24T04:52:37;2.60;;;1.42;;
27223;SDS011;14965;50.660;13.226;2023-04-24T04:55:03;2.13;;;1.50;;
27223;SDS011;14965;50.660;13.226;2023-04-24T04:57:36;2.22;;;1.33;;
27223;SDS011;14965;50.660;13.226;2023-04-24T05:00:03;4.30;;;1.58;;
27223;SDS011;14965;50.660;13.226;2023-04-24T05:02:31;2.40;;;1.40;;
27223;SDS011;14965;50.660;13.226;2023-04-24T05:04:57;2.55;;;1.40;;
27223;SDS011;14965;50.660;13.226;2023-04-24T05:07:24;3.13;;;2.10;;
27223;SDS011;14965;50.660;13.226;2023-04-24T05:09:52;3.20;;;1.75;;
27223;SDS011;14965;50.660;13.226;2023-04-24T05:12:19;3.03;;;1.70;;
27223;SDS011;14965;50.660;13.226;2023-04-24T05:14:48;3.20;;;1.50;;
27223;SDS011;14965;50.660;13.226;2023-04-24T05:17:15;2.38;;;1.33;;
27223;SDS011;14965;50.660;13.226;2023-04-24T05:19:41;2.72;;;1.45;;
27223;SDS011;14965;50.660;13.226;2023-04-24T05:22:11;4.93;;;1.65;;
27223;SDS011;14965;50.660;13.226;2023-04-24T05:24:37;3.08;;;1.35;;
27223;SDS011;14965;50.660;13.226;2023-04-24T05:27:03;4.85;;;1.60;;
27223;SDS011;14965;50.660;13.226;2023-04-24T05:29:31;3.45;;;1.50;;
27223;SDS011;14965;50.660;13.226;2023-04-24T05:32:04;3.10;;;2.05;;
27223;SDS011;14965;50.660;13.226;2023-04-24T05:34:32;4.47;;;1.90;;
27223;SDS011;14965;50.660;13.226;2023-04-24T05:36:58;4.13;;;1.70;;
27223;SDS011;14965;50.660;13.226;2023-04-24T05:39:26;2.85;;;1.48;;
27223;SDS011;14965;50.660;13.226;2023-04-24T05:41:54;4.57;;;2.00;;
27223;SDS011;14965;50.660;13.226;2023-04-24T05:44:23;2.35;;;1.65;;
27223;SDS011;14965;50.660;13.226;2023-04-24T05:46:51;4.63;;;1.60;;
27223;SDS011;14965;50.660;13.226;2023-04-24T05:49:20;1.65;;;1.50;;
27223;SDS011;14965;50.660;13.226;2023-04-24T05:51:48;2.28;;;1.50;;
27223;SDS011;14965;50.660;13.226;2023-04-24T05:54:19;1.73;;;1.20;;
27223;SDS011;14965;50.660;13.226;2023-04-24T05:56:46;2.72;;;1.52;;
27223;SDS011;14965;50.660;13.226;2023-04-24T05:59:14;3.30;;;1.02;;
27223;SDS011;14965;50.660;13.226;2023-04-24T06:01:42;5.00;;;1.50;;
27223;SDS011;14965;50.660;13.226;2023-04-24T06:04:09;4.30;;;1.23;;
27223;SDS011;14965;50.660;13.226;2023-04-24T06:06:42;2.25;;;1.30;;
27223;SDS011;14965;50.660;13.226;2023-04-24T06:09:10;2.70;;;1.25;;
27223;SDS011;14965;50.660;13.226;2023-04-24T06:11:38;2.50;;;1.13;;
27223;SDS011;14965;50.660;13.226;2023-04-24T06:14:06;2.67;;;1.50;;
27223;SDS011;14965;50.660;13.226;2023-04-24T06:16:33;2.38;;;1.40;;
27223;SDS011;14965;50.660;13.226;2023-04-24T06:19:00;2.53;;;1.30;;
27223;SDS011;14965;50.660;13.226;2023-04-24T06:21:27;3.58;;;1.50;;
27223;SDS011;14965;50.660;13.226;2023-04-24T06:23:56;2.97;;;1.20;;
27223;SDS011;14965;50.660;13.226;2023-04-24T06:26:22;4.78;;;1.80;;
27223;SDS011;14965;50.660;13.226;2023-04-24T06:28:50;3.83;;;1.50;;
27223;SDS011;14965;50.660;13.226;2023-04-24T06:31:17;2.20;;;1.08;;
27223;SDS011;14965;50.660;13.226;2023-04-24T06:33:44;3.47;;;1.25;;
27223;SDS011;14965;50.660;13.226;2023-04-24T06:36:12;1.58;;;1.10;;
27223;SDS011;14965;50.660;13.226;2023-04-24T06:38:39;4.10;;;1.08;;
27223;SDS011;14965;50.660;13.226;2023-04-24T06:41:08;2.65;;;1.33;;
27223;SDS011;14965;50.660;13.226;2023-04-24T06:46:02;5.20;;;1.30;;
27223;SDS011;14965;50.660;13.226;2023-04-24T06:48:29;2.17;;;1.10;;
27223;SDS011;14965;50.660;13.226;2023-04-24T06:50:56;2.03;;;0.90;;
27223;SDS011;14965;50.660;13.226;2023-04-24T06:53:22;2.63;;;1.20;;
27223;SDS011;14965;50.660;13.226;2023-04-24T06:55:49;4.38;;;1.15;;
27223;SDS011;14965;50.660;13.226;2023-04-24T07:04:55;2.65;;;1.25;;
27223;SDS011;14965;50.660;13.226;2023-04-24T07:07:21;4.97;;;1.20;;
27223;SDS011;14965;50.660;13.226;2023-04-24T07:09:47;3.85;;;1.13;;
27223;SDS011;14965;50.660;13.226;2023-04-24T07:12:12;2.70;;;0.95;;
27223;SDS011;14965;50.660;13.226;2023-04-24T07:14:39;2.50;;;0.70;;
27223;SDS011;14965;50.660;13.226;2023-04-24T07:17:05;5.45;;;0.95;;
27223;SDS011;14965;50.660;13.226;2023-04-24T07:19:34;2.50;;;0.98;;
27223;SDS011;14965;50.660;13.226;2023-04-24T07:22:04;5.28;;;1.25;;
27223;SDS011;14965;50.660;13.226;2023-04-24T07:24:30;3.65;;;0.93;;
27223;SDS011;14965;50.660;13.226;2023-04-24T07:26:56;4.50;;;1.17;;
27223;SDS011;14965;50.660;13.226;2023-04-24T07:29:22;1.85;;;0.85;;
27223;SDS011;14965;50.660;13.226;2023-04-24T07:31:50;2.75;;;1.40;;
27223;SDS011;14965;50.660;13.226;2023-04-24T07:34:20;3.45;;;1.40;;
27223;SDS011;14965;50.660;13.226;2023-04-24T07:37:00;4.35;;;1.40;;
27223;SDS011;14965;50.660;13.226;2023-04-24T07:39:32;3.97;;;1.70;;
27223;SDS011;14965;50.660;13.226;2023-04-24T07:42:03;5.28;;;1.38;;
27223;SDS011;14965;50.660;13.226;2023-04-24T07:44:29;4.13;;;1.48;;
27223;SDS011;14965;50.660;13.226;2023-04-24T07:46:55;2.35;;;1.30;;
27223;SDS011;14965;50.660;13.226;2023-04-24T07:49:21;2.80;;;1.15;;
27223;SDS011;14965;50.660;13.226;2023-04-24T07:51:48;10.85;;;1.27;;
27223;SDS011;14965;50.660;13.226;2023-04-24T07:54:16;2.40;;;0.90;;
27223;SDS011;14965;50.660;13.226;2023-04-24T07:56:43;1.65;;;0.70;;
27223;SDS011;14965;50.660;13.226;2023-04-24T08:13:48;7.50;;;1.17;;
27223;SDS011;14965;50.660;13.226;2023-04-24T08:16:14;7.28;;;0.93;;
27223;SDS011;14965;50.660;13.226;2023-04-24T08:21:09;6.63;;;0.90;;
27223;SDS011;14965;50.660;13.226;2023-04-24T08:23:35;5.57;;;1.00;;
27223;SDS011;14965;50.660;13.226;2023-04-24T08:26:01;3.63;;;1.08;;
27223;SDS011;14965;50.660;13.226;2023-04-24T08:28:27;4.60;;;1.00;;
27223;SDS011;14965;50.660;13.226;2023-04-24T08:30:54;4.95;;;1.00;;
27223;SDS011;14965;50.660;13.226;2023-04-24T08:33:20;3.53;;;1.67;;
27223;SDS011;14965;50.660;13.226;2023-04-24T08:35:47;8.02;;;1.05;;
27223;SDS011;14965;50.660;13.226;2023-04-24T08:38:24;3.97;;;0.93;;
27223;SDS011;14965;50.660;13.226;2023-04-24T08:45:33;2.67;;;0.90;;
27223;SDS011;14965;50.660;13.226;2023-04-24T08:55:02;18.80;;;1.20;;
27223;SDS011;14965;50.660;13.226;2023-04-24T08:57:50;6.18;;;1.67;;
27223;SDS011;14965;50.660;13.226;2023-04-24T09:00:42;8.05;;;3.47;;
27223;SDS011;14965;50.660;13.226;2023-04-24T09:03:08;4.93;;;2.20;;
27223;SDS011;14965;50.660;13.226;2023-04-24T09:05:37;6.18;;;2.10;;
27223;SDS011;14965;50.660;13.226;2023-04-24T09:08:11;3.97;;;1.90;;
27223;SDS011;14965;50.660;13.226;2023-04-24T09:10:42;9.77;;;1.50;;
27223;SDS011;14965;50.660;13.226;2023-04-24T09:13:32;3.50;;;1.10;;
27223;SDS011;14965;50.660;13.226;2023-04-24T09:16:01;5.43;;;0.95;;
27223;SDS011;14965;50.660;13.226;2023-04-24T09:18:29;4.72;;;0.98;;
27223;SDS011;14965;50.660;13.226;2023-04-24T09:21:20;2.92;;;1.00;;
27223;SDS011;14965;50.660;13.226;2023-04-24T09:23:48;1.60;;;0.80;;
27223;SDS011;14965;50.660;13.226;2023-04-24T09:26:23;2.08;;;0.95;;
27223;SDS011;14965;50.660;13.226;2023-04-24T09:28:50;3.83;;;1.05;;
27223;SDS011;14965;50.660;13.226;2023-04-24T09:31:22;4.07;;;1.00;;
27223;SDS011;14965;50.660;13.226;2023-04-24T09:33:53;8.07;;;0.93;;
27223;SDS011;14965;50.660;13.226;2023-04-24T09:46:34;2.55;;;1.13;;
27223;SDS011;14965;50.660;13.226;2023-04-24T09:49:07;2.10;;;0.98;;
27223;SDS011;14965;50.660;13.226;2023-04-24T09:51:35;1.30;;;0.70;;
27223;SDS011;14965;50.660;13.226;2023-04-24T09:54:03;5.53;;;1.00;;
27223;SDS011;14965;50.660;13.226;2023-04-24T09:56:39;3.40;;;1.00;;
27223;SDS011;14965;50.660;13.226;2023-04-24T09:59:08;11.52;;;1.10;;
27223;SDS011;14965;50.660;13.226;2023-04-24T10:01:35;5.75;;;0.90;;
27223;SDS011;14965;50.660;13.226;2023-04-24T10:04:01;2.80;;;1.15;;
27223;SDS011;14965;50.660;13.226;2023-04-24T10:06:34;6.45;;;1.98;;
27223;SDS011;14965;50.660;13.226;2023-04-24T10:09:00;4.00;;;1.55;;
27223;SDS011;14965;50.660;13.226;2023-04-24T10:11:27;3.88;;;1.25;;
27223;SDS011;14965;50.660;13.226;2023-04-24T10:13:54;2.70;;;1.10;;
27223;SDS011;14965;50.660;13.226;2023-04-24T10:16:21;2.40;;;1.00;;
27223;SDS011;14965;50.660;13.226;2023-04-24T10:18:49;2.13;;;0.80;;
27223;SDS011;14965;50.660;13.226;2023-04-24T10:21:17;4.07;;;0.70;;
27223;SDS011;14965;50.660;13.226;2023-04-24T10:23:43;1.52;;;1.20;;
27223;SDS011;14965;50.660;13.226;2023-04-24T10:26:10;3.63;;;0.85;;
27223;SDS011;14965;50.660;13.226;2023-04-24T10:28:38;5.27;;;0.70;;
27223;SDS011;14965;50.660;13.226;2023-04-24T10:31:06;0.57;;;0.52;;
27223;SDS011;14965;50.660;13.226;2023-04-24T10:33:34;0.97;;;0.60;;
27223;SDS011;14965;50.660;13.226;2023-04-24T10:36:02;4.05;;;0.60;;
27223;SDS011;14965;50.660;13.226;2023-04-24T10:38:29;3.90;;;0.55;;
27223;SDS011;14965;50.660;13.226;2023-04-24T10:41:06;1.02;;;0.60;;
27223;SDS011;14965;50.660;13.226;2023-04-24T10:43:33;3.42;;;0.85;;
27223;SDS011;14965;50.660;13.226;2023-04-24T10:46:00;1.90;;;0.60;;
27223;SDS011;14965;50.660;13.226;2023-04-24T10:48:28;2.10;;;0.60;;
27223;SDS011;14965;50.660;13.226;2023-04-24T10:50:55;5.13;;;0.70;;
27223;SDS011;14965;50.660;13.226;2023-04-24T10:53:23;1.48;;;0.70;;
27223;SDS011;14965;50.660;13.226;2023-04-24T10:55:57;1.20;;;0.77;;
27223;SDS011;14965;50.660;13.226;2023-04-24T10:58:35;4.53;;;1.00;;
27223;SDS011;14965;50.660;13.226;2023-04-24T11:01:03;2.88;;;0.90;;
27223;SDS011;14965;50.660;13.226;2023-04-24T11:03:30;2.83;;;1.02;;
27223;SDS011;14965;50.660;13.226;2023-04-24T11:06:00;8.60;;;0.93;;
27223;SDS011;14965;50.660;13.226;2023-04-24T11:08:38;6.15;;;0.95;;
27223;SDS011;14965;50.660;13.226;2023-04-24T11:11:09;1.13;;;0.90;;
27223;SDS011;14965;50.660;13.226;2023-04-24T11:16:43;1.73;;;0.90;;
27223;SDS011;14965;50.660;13.226;2023-04-24T11:19:18;8.77;;;1.08;;
27223;SDS011;14965;50.660;13.226;2023-04-24T11:21:47;3.90;;;0.98;;
27223;SDS011;14965;50.660;13.226;2023-04-24T11:24:25;4.93;;;1.00;;
27223;SDS011;14965;50.660;13.226;2023-04-24T11:26:58;1.25;;;0.98;;
27223;SDS011;14965;50.660;13.226;2023-04-24T11:29:40;1.35;;;0.90;;
27223;SDS011;14965;50.660;13.226;2023-04-24T11:32:26;4.00;;;0.90;;
27223;SDS011;14965;50.660;13.226;2023-04-24T11:34:55;1.45;;;0.70;;
27223;SDS011;14965;50.660;13.226;2023-04-24T11:37:23;2.27;;;0.80;;
27223;SDS011;14965;50.660;13.226;2023-04-24T11:39:54;2.53;;;0.90;;
27223;SDS011;14965;50.660;13.226;2023-04-24T11:42:22;1.13;;;0.77;;
27223;SDS011;14965;50.660;13.226;2023-04-24T11:44:49;3.72;;;0.90;;
27223;SDS011;14965;50.660;13.226;2023-04-24T11:47:17;1.25;;;1.05;;
27223;SDS011;14965;50.660;13.226;2023-04-24T11:49:43;2.97;;;1.20;;
27223;SDS011;14965;50.660;13.226;2023-04-24T11:52:09;1.08;;;0.90;;
27223;SDS011;14965;50.660;13.226;2023-04-24T11:54:36;2.45;;;1.00;;
27223;SDS011;14965;50.660;13.226;2023-04-24T11:57:09;2.20;;;0.90;;
27223;SDS011;14965;50.660;13.226;2023-04-24T11:59:36;2.85;;;1.17;;
27223;SDS011;14965;50.660;13.226;2023-04-24T12:02:02;3.00;;;1.15;;
27223;SDS011;14965;50.660;13.226;2023-04-24T12:04:37;1.63;;;1.00;;
27223;SDS011;14965;50.660;13.226;2023-04-24T12:07:04;2.88;;;1.13;;
27223;SDS011;14965;50.660;13.226;2023-04-24T12:09:40;2.15;;;1.10;;
27223;SDS011;14965;50.660;13.226;2023-04-24T12:12:07;3.60;;;1.38;;
27223;SDS011;14965;50.660;13.226;2023-04-24T12:14:41;1.75;;;1.10;;
27223;SDS011;14965;50.660;13.226;2023-04-24T12:17:17;2.25;;;1.35;;
27223;SDS011;14965;50.660;13.226;2023-04-24T12:22:53;1.85;;;1.20;;
27223;SDS011;14965;50.660;13.226;2023-04-24T12:25:27;4.83;;;1.40;;
27223;SDS011;14965;50.660;13.226;2023-04-24T12:28:10;3.75;;;1.20;;
27223;SDS011;14965;50.660;13.226;2023-04-24T12:30:40;2.53;;;1.08;;
27223;SDS011;14965;50.660;13.226;2023-04-24T12:33:10;1.80;;;1.10;;
27223;SDS011;14965;50.660;13.226;2023-04-24T12:38:07;2.60;;;1.38;;
27223;SDS011;14965;50.660;13.226;2023-04-24T12:43:02;3.65;;;1.40;;
27223;SDS011;14965;50.660;13.226;2023-04-24T12:45:42;1.73;;;1.17;;
27223;SDS011;14965;50.660;13.226;2023-04-24T12:48:10;3.20;;;1.02;;
27223;SDS011;14965;50.660;13.226;2023-04-24T12:50:36;3.35;;;1.20;;
27223;SDS011;14965;50.660;13.226;2023-04-24T12:53:06;5.30;;;1.10;;
27223;SDS011;14965;50.660;13.226;2023-04-24T12:55:37;6.15;;;1.27;;
27223;SDS011;14965;50.660;13.226;2023-04-24T12:58:03;3.60;;;1.20;;
27223;SDS011;14965;50.660;13.226;2023-04-24T13:00:31;3.95;;;1.88;;
27223;SDS011;14965;50.660;13.226;2023-04-24T13:05:25;2.15;;;1.55;;
27223;SDS011;14965;50.660;13.226;2023-04-24T13:07:52;6.60;;;1.42;;
27223;SDS011;14965;50.660;13.226;2023-04-24T13:10:18;5.13;;;1.45;;
27223;SDS011;14965;50.660;13.226;2023-04-24T13:12:44;2.30;;;1.40;;
27223;SDS011;14965;50.660;13.226;2023-04-24T13:15:11;2.08;;;1.40;;
27223;SDS011;14965;50.660;13.226;2023-04-24T13:17:39;2.30;;;1.40;;
27223;SDS011;14965;50.660;13.226;2023-04-24T13:20:06;2.38;;;1.25;;
27223;SDS011;14965;50.660;13.226;2023-04-24T13:22:33;3.80;;;1.42;;
27223;SDS011;14965;50.660;13.226;2023-04-24T13:25:01;2.03;;;1.67;;
27223;SDS011;14965;50.660;13.226;2023-04-24T13:27:27;1.70;;;1.60;;
27223;SDS011;14965;50.660;13.226;2023-04-24T13:29:53;2.90;;;2.10;;
27223;SDS011;14965;50.660;13.226;2023-04-24T13:32:19;4.40;;;2.30;;
27223;SDS011;14965;50.660;13.226;2023-04-24T13:34:47;1.77;;;1.45;;
27223;SDS011;14965;50.660;13.226;2023-04-24T13:37:13;1.90;;;1.25;;
27223;SDS011;14965;50.660;13.226;2023-04-24T13:40:13;1.90;;;1.40;;
27223;SDS011;14965;50.660;13.226;2023-04-24T13:42:55;1.83;;;1.30;;
27223;SDS011;14965;50.660;13.226;2023-04-24T13:45:30;3.20;;;1.42;;
27223;SDS011;14965;50.660;13.226;2023-04-24T13:47:58;1.50;;;1.40;;
27223;SDS011;14965;50.660;13.226;2023-04-24T13:50:26;3.08;;;1.33;;
27223;SDS011;14965;50.660;13.226;2023-04-24T13:52:51;2.67;;;1.40;;
27223;SDS011;14965;50.660;13.226;2023-04-24T13:55:17;2.55;;;1.50;;
27223;SDS011;14965;50.660;13.226;2023-04-24T13:57:43;2.15;;;1.75;;
27223;SDS011;14965;50.660;13.226;2023-04-24T14:00:09;2.28;;;1.70;;
27223;SDS011;14965;50.660;13.226;2023-04-24T14:02:36;5.53;;;2.75;;
27223;SDS011;14965;50.660;13.226;2023-04-24T14:05:02;3.42;;;1.27;;
27223;SDS011;14965;50.660;13.226;2023-04-24T14:07:30;4.32;;;1.50;;
27223;SDS011;14965;50.660;13.226;2023-04-24T14:09:56;4.03;;;1.60;;
27223;SDS011;14965;50.660;13.226;2023-04-24T14:12:22;4.05;;;1.60;;
27223;SDS011;14965;50.660;13.226;2023-04-24T14:14:48;2.13;;;1.38;;
27223;SDS011;14965;50.660;13.226;2023-04-24T14:17:14;2.80;;;1.38;;
27223;SDS011;14965;50.660;13.226;2023-04-24T14:19:40;4.20;;;1.80;;
27223;SDS011;14965;50.660;13.226;2023-04-24T14:22:07;1.98;;;1.55;;
27223;SDS011;14965;50.660;13.226;2023-04-24T14:24:34;2.92;;;1.48;;
27223;SDS011;14965;50.660;13.226;2023-04-24T14:27:00;5.28;;;1.88;;
27223;SDS011;14965;50.660;13.226;2023-04-24T14:29:26;5.60;;;1.70;;
27223;SDS011;14965;50.660;13.226;2023-04-24T14:31:52;3.15;;;1.50;;
27223;SDS011;14965;50.660;13.226;2023-04-24T14:34:17;1.65;;;1.50;;
27223;SDS011;14965;50.660;13.226;2023-04-24T14:36:43;4.13;;;1.60;;
27223;SDS011;14965;50.660;13.226;2023-04-24T14:39:09;3.58;;;1.63;;
27223;SDS011;14965;50.660;13.226;2023-04-24T14:41:36;4.32;;;3.55;;
27223;SDS011;14965;50.660;13.226;2023-04-24T14:44:02;2.55;;;1.55;;
27223;SDS011;14965;50.660;13.226;2023-04-24T14:46:29;3.95;;;2.40;;
27223;SDS011;14965;50.660;13.226;2023-04-24T14:48:55;3.97;;;3.00;;
27223;SDS011;14965;50.660;13.226;2023-04-24T14:51:21;2.88;;;2.00;;
27223;SDS011;14965;50.660;13.226;2023-04-24T14:53:47;2.75;;;1.45;;
27223;SDS011;14965;50.660;13.226;2023-04-24T14:56:13;3.85;;;1.50;;
27223;SDS011;14965;50.660;13.226;2023-04-24T14:58:40;3.50;;;2.00;;
27223;SDS011;14965;50.660;13.226;2023-04-24T15:01:06;4.43;;;1.67;;
27223;SDS011;14965;50.660;13.226;2023-04-24T15:03:32;6.85;;;1.60;;
27223;SDS011;14965;50.660;13.226;2023-04-24T15:06:01;3.83;;;1.83;;
27223;SDS011;14965;50.660;13.226;2023-04-24T15:08:27;3.75;;;2.00;;
27223;SDS011;14965;50.660;13.226;2023-04-24T15:13:22;3.50;;;1.80;;
27223;SDS011;14965;50.660;13.226;2023-04-24T15:15:49;5.63;;;2.88;;
27223;SDS011;14965;50.660;13.226;2023-04-24T15:18:15;3.38;;;2.20;;
27223;SDS011;14965;50.660;13.226;2023-04-24T15:20:41;3.42;;;1.83;;
27223;SDS011;14965;50.660;13.226;2023-04-24T15:23:07;3.15;;;1.92;;
27223;SDS011;14965;50.660;13.226;2023-04-24T15:25:34;4.72;;;2.50;;
27223;SDS011;14965;50.660;13.226;2023-04-24T15:28:00;5.35;;;2.00;;
27223;SDS011;14965;50.660;13.226;2023-04-24T15:30:26;3.42;;;1.83;;
27223;SDS011;14965;50.660;13.226;2023-04-24T15:32:54;2.80;;;2.20;;
27223;SDS011;14965;50.660;13.226;2023-04-24T15:35:20;3.55;;;2.30;;
27223;SDS011;14965;50.660;13.226;2023-04-24T15:37:46;3.08;;;2.30;;
27223;SDS011;14965;50.660;13.226;2023-04-24T15:40:12;3.55;;;2.22;;
27223;SDS011;14965;50.660;13.226;2023-04-24T15:42:38;2.97;;;2.17;;
27223;SDS011;14965;50.660;13.226;2023-04-24T15:45:04;2.72;;;2.30;;
27223;SDS011;14965;50.660;13.226;2023-04-24T15:47:31;4.45;;;2.10;;
27223;SDS011;14965;50.660;13.226;2023-04-24T15:49:59;1.98;;;1.85;;
27223;SDS011;14965;50.660;13.226;2023-04-24T15:52:24;3.25;;;2.05;;
27223;SDS011;14965;50.660;13.226;2023-04-24T15:54:50;5.10;;;2.25;;
27223;SDS011;14965;50.660;13.226;2023-04-24T15:57:16;2.53;;;1.80;;
27223;SDS011;14965;50.660;13.226;2023-04-24T15:59:42;5.13;;;2.72;;
27223;SDS011;14965;50.660;13.226;2023-04-24T16:02:09;3.13;;;2.10;;
27223;SDS011;14965;50.660;13.226;2023-04-24T16:04:38;4.40;;;1.92;;
27223;SDS011;14965;50.660;13.226;2023-04-24T16:07:06;3.58;;;1.80;;
27223;SDS011;14965;50.660;13.226;2023-04-24T16:09:31;5.80;;;2.78;;
27223;SDS011;14965;50.660;13.226;2023-04-24T16:11:57;5.97;;;4.07;;
27223;SDS011;14965;50.660;13.226;2023-04-24T16:14:23;10.30;;;7.10;;
27223;SDS011;14965;50.660;13.226;2023-04-24T16:16:49;5.43;;;4.35;;
27223;SDS011;14965;50.660;13.226;2023-04-24T16:19:15;7.30;;;4.90;;
27223;SDS011;14965;50.660;13.226;2023-04-24T16:21:41;15.10;;;2.05;;
27223;SDS011;14965;50.660;13.226;2023-04-24T16:24:08;3.08;;;1.75;;
27223;SDS011;14965;50.660;13.226;2023-04-24T16:26:34;2.38;;;1.35;;
27223;SDS011;14965;50.660;13.226;2023-04-24T16:28:59;2.33;;;1.60;;
27223;SDS011;14965;50.660;13.226;2023-04-24T16:31:25;4.32;;;1.80;;
27223;SDS011;14965;50.660;13.226;2023-04-24T16:33:51;3.30;;;1.83;;
27223;SDS011;14965;50.660;13.226;2023-04-24T16:36:17;3.45;;;2.13;;
27223;SDS011;14965;50.660;13.226;2023-04-24T16:38:43;5.40;;;3.20;;
27223;SDS011;14965;50.660;13.226;2023-04-24T16:41:10;2.83;;;2.03;;
27223;SDS011;14965;50.660;13.226;2023-04-24T16:43:36;2.10;;;1.70;;
27223;SDS011;14965;50.660;13.226;2023-04-24T16:46:02;2.30;;;1.83;;
27223;SDS011;14965;50.660;13.226;2023-04-24T16:48:27;2.03;;;1.65;;
27223;SDS011;14965;50.660;13.226;2023-04-24T16:50:54;3.65;;;2.10;;
27223;SDS011;14965;50.660;13.226;2023-04-24T16:53:20;3.15;;;1.80;;
27223;SDS011;14965;50.660;13.226;2023-04-24T16:55:45;2.42;;;1.85;;
27223;SDS011;14965;50.660;13.226;2023-04-24T16:58:13;3.90;;;1.90;;
27223;SDS011;14965;50.660;13.226;2023-04-24T17:00:38;4.53;;;1.70;;
27223;SDS011;14965;50.660;13.226;2023-04-24T17:03:04;3.17;;;2.08;;
27223;SDS011;14965;50.660;13.226;2023-04-24T17:05:31;4.88;;;2.30;;
27223;SDS011;14965;50.660;13.226;2023-04-24T17:07:57;2.22;;;2.03;;
27223;SDS011;14965;50.660;13.226;2023-04-24T17:10:23;2.20;;;2.00;;
27223;SDS011;14965;50.660;13.226;2023-04-24T17:12:49;4.47;;;2.00;;
27223;SDS011;14965;50.660;13.226;2023-04-24T17:15:16;3.47;;;2.63;;
27223;SDS011;14965;50.660;13.226;2023-04-24T17:17:42;3.95;;;2.92;;
27223;SDS011;14965;50.660;13.226;2023-04-24T17:20:08;5.85;;;2.60;;
27223;SDS011;14965;50.660;13.226;2023-04-24T17:22:35;2.80;;;2.10;;
27223;SDS011;14965;50.660;13.226;2023-04-24T17:25:01;2.72;;;2.28;;
27223;SDS011;14965;50.660;13.226;2023-04-24T17:27:27;3.42;;;2.30;;
27223;SDS011;14965;50.660;13.226;2023-04-24T17:29:53;3.15;;;2.60;;
27223;SDS011;14965;50.660;13.226;2023-04-24T17:32:20;4.63;;;3.30;;
27223;SDS011;14965;50.660;13.226;2023-04-24T17:34:46;2.75;;;2.20;;
27223;SDS011;14965;50.660;13.226;2023-04-24T17:37:11;2.95;;;1.90;;
27223;SDS011;14965;50.660;13.226;2023-04-24T17:39:37;2.80;;;2.50;;
27223;SDS011;14965;50.660;13.226;2023-04-24T17:42:03;3.80;;;2.42;;
27223;SDS011;14965;50.660;13.226;2023-04-24T17:44:30;3.28;;;2.22;;
27223;SDS011;14965;50.660;13.226;2023-04-24T17:46:55;3.63;;;1.90;;